Flight Track Log - Related Links

Times and Time Zones

All times are in EDT time to prevent confusion due to time zone crossing. See the FLG3862 flight status page for this flight to view local times or setup timezone preferences in your user account.


Time Position Orientation Groundspeed Altitude Reporting Facility
EDT Latitude Longitude Course Direction KTS MPH feet Rate Location/Type
Tue 12:35:39 PM 44.3528 -73.1892 245° Southwest 222 255 7,900  Level Boston Center
Tue 12:36:00 PM 44.3756 -73.6584 253° West  Level FlightAware Approximate
Tue 12:36:39 PM 44.3417 -73.2878 261° West 260 299 10,900  Level Boston Center
Tue 12:37:00 PM 44.3544 -73.7861 259° West  Level FlightAware Approximate
Tue 12:37:39 PM 44.3261 -73.4064 260° West 305 351 12,300  Level Boston Center
Tue 12:38:00 PM 44.3360 -73.9147 259° West  Level FlightAware Approximate
Tue 12:38:39 PM 44.3081 -73.5394 259° West 345 397 14,100  Level Boston Center
Tue 12:39:00 PM 44.3134 -74.0419 256° West  Level FlightAware Approximate
Tue 12:39:39 PM 44.2900 -73.6783 260° West 368 423 16,000  Level Boston Center
Tue 12:40:00 PM 44.2900 -74.1688 256° West  Level FlightAware Approximate
Tue 12:40:40 PM 44.2717 -73.8317 261° West 373 429 18,100  Level Boston Center
Tue 12:41:39 PM 44.2511 -73.9703 258° West 373 429 19,700 1,815 Climbing Boston Center
Tue 12:42:39 PM 44.2347 -74.1061 260° West 373 429 21,700 1,550 Climbing Boston Center
Tue 12:43:39 PM 44.2183 -74.2275 259° West 373 429 22,800 1,050 Climbing Boston Center
Tue 12:44:39 PM 44.1972 -74.3658 258° West 373 429 23,800 992 Climbing Boston Center
Tue 12:45:40 PM 44.1803 -74.5100 261° West 373 429 24,800 1,000 Climbing Boston Center
Tue 12:46:39 PM 44.1589 -74.6539 258° West 378 435 25,800 1,008 Climbing Boston Center
Tue 12:47:39 PM 44.1369 -74.8036 259° West 384 442 26,800 1,000 Climbing Boston Center
Tue 12:48:39 PM 44.1172 -74.9475 259° West 389 448 27,800 595 Climbing Boston Center
Tue 12:49:40 PM 44.0928 -75.1169 259° West 402 463 28,000 99 Climbing Boston Center
Tue 12:50:40 PM 44.0722 -75.2692 259° West 408 470 28,000  Level Boston Center
Tue 12:51:39 PM 44.0494 -75.4300 259° West 413 475 28,000  Level Boston Center
Tue 12:52:39 PM 44.0264 -75.5933 259° West 423 487 28,000  Level Boston Center
Tue 12:53:40 PM 44.0008 -75.7567 258° West 430 495 28,000  Level Boston Center
Tue 12:54:39 PM 43.9772 -75.9256 259° West 440 506 28,000  Level Boston Center
Tue 12:55:39 PM 43.9553 -76.0917 260° West 440 506 28,000  Level Boston Center
Tue 12:56:39 PM 43.9497 -76.2614 267° West 446 513 28,000  Level Boston Center
Tue 12:57:40 PM 43.9464 -76.4200 268° West 433 498 28,000  Level Boston Center
Tue 12:58:40 PM 43.9431 -76.5783 268° West 420 483 28,000  Level Boston Center
Tue 12:59:39 PM 43.9372 -76.7367 267° West 420 483 28,000  Level Boston Center
Tue 01:00:11 PM 43.9167 -76.7833 239° Southwest 400 460 28,000  Level Toronto Center
Tue 01:01:11 PM 43.9167 -76.9500 270° West 400 460 28,000  Level Toronto Center
Tue 01:02:11 PM 43.9000 -77.0833 260° West 390 449 28,000  Level Toronto Center
Tue 01:03:11 PM 43.8833 -77.2500 262° West 390 449 28,000  Level Toronto Center
Tue 01:04:11 PM 43.8667 -77.3833 260° West 390 449 28,000  Level Toronto Center
Tue 01:05:11 PM 43.8500 -77.5333 261° West 390 449 28,000  Level Toronto Center
Tue 01:06:11 PM 43.8333 -77.6833 261° West 390 449 28,000  Level Toronto Center
Tue 01:07:11 PM 43.8000 -77.8500 255° West 400 460 28,000  Level Toronto Center
Tue 01:08:11 PM 43.7833 -78.0000 261° West 410 472 28,000  Level Toronto Center
Tue 01:09:11 PM 43.7500 -78.1500 253° West 420 483 28,000  Level Toronto Center
Tue 01:10:11 PM 43.7333 -78.3167 262° West 420 483 28,000  Level Toronto Center
Tue 01:11:11 PM 43.7000 -78.4833 255° West 430 495 28,000  Level Toronto Center
Tue 01:12:11 PM 43.7000 -78.6333 270° West 440 506 28,000  Level Toronto Center
Tue 01:13:11 PM 43.6500 -78.7833 245° Southwest 440 506 28,000  Level Toronto Center
Tue 01:14:11 PM 43.5833 -78.9500 241° Southwest 430 495 28,000  Level Toronto Center
Tue 01:15:11 PM 43.5167 -79.0833 235° Southwest 430 495 28,000  Level Toronto Center
Tue 01:16:11 PM 43.4500 -79.2167 235° Southwest 420 483 28,000  Level Toronto Center
Tue 01:17:11 PM 43.4000 -79.3500 243° Southwest 420 483 28,000  Level Toronto Center
Tue 01:18:11 PM 43.3333 -79.4667 232° Southwest 420 483 28,000  Level Toronto Center
Tue 01:19:11 PM 43.2667 -79.6167 239° Southwest 400 460 28,000  Level Toronto Center
Tue 01:20:11 PM 43.2167 -79.7500 243° Southwest 390 449 28,000 -250 Level Toronto Center
Tue 01:21:11 PM 43.1667 -79.8667 240° Southwest 380 437 27,500 -1,300 Descending Toronto Center
Tue 01:22:11 PM 43.1000 -79.9833 232° Southwest 380 437 25,400 -2,300 Descending Toronto Center
Tue 01:23:11 PM 43.0500 -80.1167 243° Southwest 370 426 22,900 -2,200 Descending Toronto Center
Tue 01:24:11 PM 43.0000 -80.2333 240° Southwest 370 426 21,000 -950 Descending Toronto Center
Tue 01:25:11 PM 42.9500 -80.3333 236° Southwest 350 403 21,000  Level Toronto Center
Tue 01:26:11 PM 42.9000 -80.4500 240° Southwest 350 403 21,000  Level Toronto Center
Tue 01:27:11 PM 42.8500 -80.5667 240° Southwest 360 414 21,000  Level Toronto Center
Tue 01:28:11 PM 42.7833 -80.6833 232° Southwest 360 414 21,000  Level Toronto Center
Tue 01:29:11 PM 42.7333 -80.7833 236° Southwest 360 414 21,000  Level Toronto Center
Tue 01:30:11 PM 42.6833 -80.9333 246° West 350 403 21,000  Level Toronto Center
Tue 01:31:11 PM 42.6667 -81.0333 257° West 350 403 21,000 -100 Level Toronto Center
Tue 01:32:11 PM 42.6500 -81.1667 260° West 360 414 20,800 -600 Descending Toronto Center
Tue 01:33:11 PM 42.6500 -81.3167 270° West 350 403 19,800 -900 Descending Toronto Center
Tue 01:34:11 PM 42.6333 -81.4167 257° West 340 391 19,000 -900 Descending Toronto Center
Tue 01:35:11 PM 42.6167 -81.5667 261° West 330 380 18,000 -1,050 Descending Toronto Center
Tue 01:36:11 PM 42.6000 -81.6667 257° West 320 368 16,900 -933 Descending Toronto Center
Tue 01:36:41 PM 42.6108 -81.7294 283° West 320 368 16,600 -794 Descending FAA TRACON SMA TRACON (SMA)
Tue 01:37:19 PM 42.6025 -81.7981 261° West 313 360 16,000 -1,017 Descending FAA TRACON SMA TRACON (SMA)
Tue 01:37:40 PM 42.5975 -81.8428 261° West 309 356 15,600 -1,143 Descending FAA TRACON SMA TRACON (SMA)
Tue 01:38:01 PM 42.5919 -81.8869 260° West 304 350 15,200 -1,200 Descending FAA TRACON SMA TRACON (SMA)
Tue 01:38:20 PM 42.5867 -81.9311 261° West 302 348 14,800 -923 Descending FAA TRACON SMA TRACON (SMA)
Tue 01:38:40 PM 42.5842 -81.9533 261° West 301 346 14,600 -878 Descending FAA TRACON SMA TRACON (SMA)
Tue 01:39:01 PM 42.5792 -81.9975 261° West 300 345 14,200 -1,143 Descending FAA TRACON SMA TRACON (SMA)
Tue 01:39:22 PM 42.5742 -82.0422 261° West 300 345 13,800 -923 Descending FAA TRACON SMA TRACON (SMA)
Tue 01:39:40 PM 42.5711 -82.0631 259° West 293 337 13,600 -947 Descending FAA TRACON SMA TRACON (SMA)
Tue 01:40:00 PM 42.5650 -82.1061 259° West 295 339 13,200 -1,200 Descending FAA TRACON SMA TRACON (SMA)
Tue 01:40:20 PM 42.5592 -82.1475 259° West 292 336 12,800 -1,024 Descending FAA TRACON SMA TRACON (SMA)
Tue 01:40:41 PM 42.5547 -82.1853 261° West 291 335 12,500 -1,024 Descending FAA TRACON SMA TRACON (SMA)
Tue 01:41:01 PM 42.5508 -82.2186 261° West 291 335 12,100 -750 Descending FAA TRACON SMA TRACON (SMA)
Tue 01:41:21 PM 42.5447 -82.2567 258° West 288 331 12,000 -150 Descending FAA TRACON SMA TRACON (SMA)
Tue 01:41:41 PM 42.5411 -82.2922 262° West 288 331 12,000  Level FAA TRACON SMA TRACON (SMA)
Tue 01:42:14 PM 42.5342 -82.3414 259° West 298 343 12,000  Level Cleveland Center
Tue 01:42:32 PM 42.5272 -82.3892 259° West 293 337 12,000  Level Cleveland Center
Tue 01:43:14 PM 42.5200 -82.4508 261° West 298 343 12,000  Level Cleveland Center
Tue 01:43:33 PM 42.5131 -82.4986 259° West 295 339 12,000  Level Cleveland Center
Tue 01:44:14 PM 42.5039 -82.5517 257° West 292 336 12,000  Level Cleveland Center
Tue 01:44:34 PM 42.4883 -82.5964 245° Southwest 259 298 12,000 -700 Level Cleveland Center
Tue 01:45:14 PM 42.4689 -82.6381 238° Southwest 274 315 11,300 -1,672 Descending Cleveland Center
Tue 01:45:35 PM 42.4494 -82.6767 236° Southwest 253 291 10,300 -2,200 Descending Cleveland Center
Tue 01:46:14 PM 42.4258 -82.7153 230° Southwest 263 303 9,100 -1,258 Descending Cleveland Center
Tue 01:46:37 PM 42.4042 -82.7569 235° Southwest 261 300 9,000 -400 Descending Cleveland Center
Tue 01:47:14 PM 42.3992 -82.7989 261° West 263 303 8,700 -885 Descending Cleveland Center
Tue 01:47:38 PM 42.4044 -82.8525 278° West 273 314 8,100 -1,300 Descending Cleveland Center
Tue 01:48:14 PM 42.4203 -82.8981 295° West 244 281 7,400 -1,082 Descending Cleveland Center
Tue 01:48:39 PM 42.4400 -82.9467 299° West 272 313 7,000 -500 Descending Cleveland Center
Tue 01:49:14 PM 42.4497 -82.9806 291° West 249 287 6,900 -689 Descending Cleveland Center
Tue 01:49:40 PM 42.4572 -83.0231 283° West 192 221 6,300 -900 Descending Cleveland Center
Tue 01:50:14 PM 42.4525 -83.0539 258° West 222 255 6,000 -290 Descending Cleveland Center
Tue 01:50:42 PM 42.4453 -83.0903 255° West 175 201 6,000 -621 Level Cleveland Center
Tue 01:51:41 PM 42.4192 -83.1408 235° Southwest 178 205 5,100 -759 Descending FAA TRACON SMA TRACON (SMA)
Tue 01:52:01 PM 42.4081 -83.1600 232° Southwest 176 203 5,000 -300 Descending FAA TRACON SMA TRACON (SMA)
Tue 01:52:21 PM 42.3994 -83.1761 234° Southwest 180 207 4,900 -600 Descending FAA TRACON SMA TRACON (SMA)
Tue 01:52:41 PM 42.3872 -83.1947 228° Southwest 181 208 4,600 -900 Descending FAA TRACON SMA TRACON (SMA)
Tue 01:53:01 PM 42.3772 -83.2086 226° Southwest 171 197 4,300 -750 Descending FAA TRACON SMA TRACON (SMA)
Tue 01:53:21 PM 42.3661 -83.2203 218° Southwest 151 174 4,100 -750 Descending FAA TRACON SMA TRACON (SMA)
Tue 01:53:41 PM 42.3547 -83.2317 216° Southwest 144 166 3,800 -900 Descending FAA TRACON SMA TRACON (SMA)
Tue 01:54:01 PM 42.3428 -83.2428 215° Southwest 141 162 3,500 -750 Descending FAA TRACON SMA TRACON (SMA)
Tue 01:54:21 PM 42.3325 -83.2508 210° Southwest 146 168 3,300 -450 Descending FAA TRACON SMA TRACON (SMA)
Tue 01:54:41 PM 42.3211 -83.2594 209° Southwest 150 173 3,200 -750 Descending FAA TRACON SMA TRACON (SMA)
Tue 01:55:01 PM 42.3067 -83.2694 207° Southwest 148 170 2,800 -1,050 Descending FAA TRACON SMA TRACON (SMA)
Tue 01:55:21 PM 42.2953 -83.2786 211° Southwest 136 157 2,500 -900 Descending FAA TRACON SMA TRACON (SMA)

Login

Don't have an account? Register now (free) for customized features, flight alerts, and more!